Kirishima Maru No.5 — JD2506 — position and weather

sailwx.info

Track history (hours):
 
Tides and Currents Weather Stations Pressure Air Temp Water Temp Dewpoint Dewpoint Depression Visibility Wind Speed Wind Dir Waves Ship Positions

Kirishima Maru No.5

Last reported at 2015-May-29 23:21 UTC. Time now 2015-May-30 08:25 UTC.
Position N 34°07' E 134°59'.

Length 105 m; draft 5.4 m.

Type: Tanker. MMSI: 431000338.

Date/timePositionNaut miles runAvg speedWind from/ knotsBaromVisibWave heightAir tempDewpointWater temp
2015-May-29 23:21N 34°07' E 134°59'1114.3
2015-May-29 22:33N 34°19' E 134°59'1414.1
2015-May-29 21:33N 34°33' E 135°02'8 8.2
2015-May-29 20:33N 34°34' E 134°53'3 0.1
2015-May-28 07:05N 34°36' E 134°56'713.9
2015-May-28 06:33N 34°35' E 135°05'1413.8
2015-May-28 05:33N 34°22' E 135°01'1313.3
2015-May-28 04:33N 34°09' E 134°59'1514.0
2015-May-28 03:31N 33°54' E 135°01'25012.3
2015-May-27 07:04N 34°50' E 139°57'814.3
2015-May-27 06:33N 34°54' E 140°04'3112.7
2015-May-27 04:06N 35°14' E 140°34'1811.2
2015-May-27 02:28N 35°28' E 140°47'1111.8
2015-May-27 01:33N 35°37' E 140°56'4113.7
2015-May-26 22:33N 36°18' E 141°01'1413.7
2015-May-26 21:33N 36°31' E 141°03'20 0.4
2015-May-24 23:06N 36°11' E 141°01'2214.2
2015-May-24 21:33N 35°49' E 140°58'1414.1
2015-May-24 20:33N 35°36' E 140°53'4715.4
2015-May-24 17:31N 35°00' E 140°16'1414.1
2015-May-24 16:31N 34°53' E 140°01'1514.4
2015-May-24 15:28N 34°46' E 139°45'24012.0
2015-May-23 19:32N 34°05' E 134°59'1914.0
2015-May-23 18:11N 34°24' E 135°00'914.2
2015-May-23 17:33N 34°33' E 135°02'7 0.2
2015-May-22 00:18N 34°36' E 134°54'912.3
2015-May-21 23:34N 34°35' E 135°06'1414.1
2015-May-21 22:33N 34°21' E 135°01'1312.9
2015-May-21 21:33N 34°08' E 134°60'24911.3
2015-May-20 23:32N 34°51' E 139°57'1414.1
2015-May-20 22:33N 34°58' E 140°12'2812.8
2015-May-20 20:22N 35°17' E 140°37'1012.5
2015-May-20 19:32N 35°25' E 140°44'1412.9
2015-May-20 18:28N 35°36' E 140°55'1513.2
2015-May-20 17:21N 35°50' E 140°58'1113.7
2015-May-20 16:33N 36°01' E 140°60'  
Track history (hours):
 
Tides and Currents Weather Stations Pressure Air Temp Water Temp Dewpoint Dewpoint Depression Visibility Wind Speed Wind Dir Waves Ship Positions

Kirishima Maru No.5

Last reported at 2015-May-29 23:21 UTC. Time now 2015-May-30 08:25 UTC.
Position N 34°07' E 134°59'.

Length 105 m; draft 5.4 m.

Type: Tanker. MMSI: 431000338.

Date/timePositionNaut miles runAvg speedWind from/ knotsBaromVisibWave heightAir tempDewpointWater temp
2015-May-29 23:21N 34°07' E 134°59'1114.3
2015-May-29 22:33N 34°19' E 134°59'1414.1
2015-May-29 21:33N 34°33' E 135°02'8 8.2
2015-May-29 20:33N 34°34' E 134°53'3 0.1
2015-May-28 07:05N 34°36' E 134°56'713.9
2015-May-28 06:33N 34°35' E 135°05'1413.8
2015-May-28 05:33N 34°22' E 135°01'1313.3
2015-May-28 04:33N 34°09' E 134°59'1514.0
2015-May-28 03:31N 33°54' E 135°01'25012.3
2015-May-27 07:04N 34°50' E 139°57'814.3
2015-May-27 06:33N 34°54' E 140°04'3112.7
2015-May-27 04:06N 35°14' E 140°34'1811.2
2015-May-27 02:28N 35°28' E 140°47'1111.8
2015-May-27 01:33N 35°37' E 140°56'4113.7
2015-May-26 22:33N 36°18' E 141°01'1413.7
2015-May-26 21:33N 36°31' E 141°03'20 0.4
2015-May-24 23:06N 36°11' E 141°01'2214.2
2015-May-24 21:33N 35°49' E 140°58'1414.1
2015-May-24 20:33N 35°36' E 140°53'4715.4
2015-May-24 17:31N 35°00' E 140°16'1414.1
2015-May-24 16:31N 34°53' E 140°01'1514.4
2015-May-24 15:28N 34°46' E 139°45'24012.0
2015-May-23 19:32N 34°05' E 134°59'1914.0
2015-May-23 18:11N 34°24' E 135°00'914.2
2015-May-23 17:33N 34°33' E 135°02'7 0.2
2015-May-22 00:18N 34°36' E 134°54'912.3
2015-May-21 23:34N 34°35' E 135°06'1414.1
2015-May-21 22:33N 34°21' E 135°01'1312.9
2015-May-21 21:33N 34°08' E 134°60'24911.3
2015-May-20 23:32N 34°51' E 139°57'1414.1
2015-May-20 22:33N 34°58' E 140°12'2812.8
2015-May-20 20:22N 35°17' E 140°37'1012.5
2015-May-20 19:32N 35°25' E 140°44'1412.9
2015-May-20 18:28N 35°36' E 140°55'1513.2
2015-May-20 17:21N 35°50' E 140°58'1113.7
2015-May-20 16:33N 36°01' E 140°60'  

Dump ship's entire track history